Time;durP1;ratioP1;P1;durP2;ratioP2;P2;SDS_P1;SDS_P2;PMS_P1;PMS_P2;Temp;Humidity;BMP_temperature;BMP_pressure;BME280_temperature;BME280_humidity;BME280_pressure;Samples;Min_cycle;Max_cycle;Signal;HPM_P1;HPM_P2
2022/05/31 00:02:16;;;;;;;5.75;3.53;;;;;;;-146.64;100.00;107993.13;5034111;28;20564;-78
2022/05/31 00:04:43;;;;;;;5.97;3.90;;;;;;;-146.64;100.00;109592.44;5054631;28;20029;-77
2022/05/31 00:07:08;;;;;;;10.25;4.13;;;;;;;-146.64;100.00;111192.41;5061781;28;20115;-77
2022/05/31 00:09:34;;;;;;;9.73;4.20;;;;;;;-146.64;100.00;110125.69;5062474;28;20166;-77
2022/05/31 00:12:00;;;;;;;8.65;4.38;;;;;;;-146.64;100.00;110659.00;5038100;28;20032;-78
2022/05/31 00:14:25;;;;;;;6.27;4.00;;;;;;;-146.64;100.00;110659.00;5042157;28;20029;-78
2022/05/31 00:16:51;;;;;;;9.02;4.55;;;;;;;-146.64;100.00;110392.34;5045374;28;20029;-78
2022/05/31 00:19:19;;;;;;;5.88;3.63;;;;;;;-146.64;100.00;109859.06;5040921;28;20028;-77
2022/05/31 00:21:59;;;;;;;14.55;4.22;;;;;;;-146.64;100.00;108526.16;5068340;28;20039;-78
2022/05/31 00:24:24;;;;;;;5.70;3.80;;;;;;;-146.64;100.00;109592.44;5051993;28;20036;-78
2022/05/31 00:26:50;;;;;;;9.70;4.37;;;;;;;-146.64;100.00;107193.69;5070388;28;20051;-78
2022/05/31 00:29:15;;;;;;;7.65;4.20;;;;;;;-146.64;100.00;110659.00;5071105;28;20063;-77
2022/05/31 00:31:44;;;;;;;10.98;3.95;;;;;;;-146.64;100.00;109592.44;5067958;28;20040;-77
2022/05/31 00:34:11;;;;;;;8.43;3.85;;;;;;;-146.64;100.00;107460.16;5052879;28;20051;-77
2022/05/31 00:36:38;;;;;;;10.50;4.70;;;;;;;-146.64;100.00;109859.06;5060633;28;20031;-78
2022/05/31 00:39:04;;;;;;;8.77;5.38;;;;;;;-146.64;100.00;109325.84;5069085;28;20463;-78
2022/05/31 00:41:31;;;;;;;8.35;4.60;;;;;;;-146.64;100.00;110125.69;5050923;28;20356;-77
2022/05/31 00:44:00;;;;;;;6.60;4.30;;;;;;;-146.64;100.00;111192.41;5035554;28;20089;-78
2022/05/31 00:46:44;;;;;;;10.68;4.97;;;;;;;-146.64;100.00;111992.59;5049228;28;20027;-78
2022/05/31 00:49:11;;;;;;;8.77;5.45;;;;;;;-146.64;100.00;111725.84;5070434;28;20040;-78
2022/05/31 00:51:43;;;;;;;;;;;;;;;-146.64;100.00;111459.13;5052991;28;20037;-77
2022/05/31 00:54:13;;;;;;;8.15;5.05;;;;;;;-146.64;100.00;111192.41;5066648;28;20391;-78
2022/05/31 00:56:39;;;;;;;7.72;5.25;;;;;;;-146.64;100.00;111459.13;5062055;28;20108;-78
2022/05/31 00:59:12;;;;;;;10.15;5.22;;;;;;;-146.64;100.00;111459.13;5064506;28;20120;-77
2022/05/31 01:01:39;;;;;;;10.82;5.65;;;;;;;-146.64;100.00;113593.50;5043091;28;20468;-78
2022/05/31 01:04:05;;;;;;;9.30;5.57;;;;;;;-146.64;100.00;112526.16;5067316;28;20035;-79
2022/05/31 01:06:33;;;;;;;9.63;5.97;;;;;;;-146.64;100.00;113326.63;5041858;28;20091;-79
2022/05/31 01:08:59;;;;;;;12.18;6.50;;;;;;;-146.64;100.00;113860.38;5069500;28;20021;-79
2022/05/31 01:11:27;;;;;;;9.52;6.35;;;;;;;-146.64;100.00;113593.50;5050412;28;20222;-79
2022/05/31 01:13:54;;;;;;;9.50;5.70;;;;;;;-146.64;100.00;113860.38;5059392;28;20064;-79
2022/05/31 01:16:19;;;;;;;8.75;5.40;;;;;;;-146.64;100.00;112792.97;5051222;28;20090;-78
2022/05/31 01:18:45;;;;;;;7.65;5.95;;;;;;;-146.64;100.00;114127.28;5035156;28;20634;-79
2022/05/31 01:21:10;;;;;;;10.40;5.50;;;;;;;-146.64;100.00;113326.63;5067337;28;20476;-79
2022/05/31 01:23:46;;;;;;;7.07;5.57;;;;;;;-146.64;100.00;112526.16;5044368;28;20162;-79
2022/05/31 01:26:32;;;;;;;7.05;5.47;;;;;;;-146.64;100.00;113059.81;5059352;28;20392;-79
2022/05/31 01:29:16;;;;;;;9.02;5.50;;;;;;;-146.64;100.00;113593.50;5052539;28;20062;-79
2022/05/31 01:31:48;;;;;;;11.77;5.85;;;;;;;-146.64;100.00;114127.28;5037607;28;20153;-79
2022/05/31 01:34:24;;;;;;;8.75;5.93;;;;;;;-146.64;100.00;114928.06;5033257;28;20028;-79
2022/05/31 01:36:53;;;;;;;10.60;5.50;;;;;;;-146.64;100.00;114661.13;5048551;28;20034;-79
2022/05/31 01:39:23;;;;;;;9.85;6.43;;;;;;;-146.64;100.00;114928.06;5044887;28;20531;-79
2022/05/31 01:42:16;;;;;;;12.90;6.20;;;;;;;-146.64;100.00;114661.13;5046683;28;20029;-78
2022/05/31 01:44:44;;;;;;;10.68;5.82;;;;;;;-146.64;100.00;114928.06;5056138;28;20028;-79
2022/05/31 01:47:10;;;;;;;11.00;6.20;;;;;;;-146.64;100.00;114127.28;5051546;28;20033;-79
2022/05/31 01:49:39;;;;;;;8.73;6.38;;;;;;;-146.64;100.00;113326.63;5051628;28;20128;-79
2022/05/31 01:52:05;;;;;;;9.82;6.15;;;;;;;-146.64;100.00;114928.06;5037596;28;20055;-79
2022/05/31 01:54:31;;;;;;;10.68;7.00;;;;;;;-146.64;100.00;114661.13;5048941;28;20456;-78
2022/05/31 01:56:59;;;;;;;9.95;6.13;;;;;;;-146.64;100.00;114127.28;5068606;28;20064;-79
2022/05/31 01:59:25;;;;;;;12.82;6.50;;;;;;;-146.64;100.00;115195.03;5060587;28;20462;-79
2022/05/31 02:01:52;;;;;;;10.18;6.75;;;;;;;-146.64;100.00;114928.06;5034201;28;20025;-79
2022/05/31 02:04:18;;;;;;;12.82;7.40;;;;;;;-146.64;100.00;115462.00;5050748;28;20032;-79
2022/05/31 02:06:44;;;;;;;12.05;6.60;;;;;;;-146.64;100.00;115195.03;5060129;28;20111;-79
2022/05/31 02:09:12;;;;;;;11.82;6.72;;;;;;;-146.64;100.00;114928.06;5039539;28;20029;-79
2022/05/31 02:11:37;;;;;;;11.05;6.10;;;;;;;-146.64;100.00;114394.19;5040667;28;20033;-79
2022/05/31 02:14:03;;;;;;;14.20;6.88;;;;;;;-146.64;100.00;115195.03;5057718;28;20102;-78
2022/05/31 02:16:29;;;;;;;12.07;6.10;;;;;;;-146.64;100.00;115462.00;5023110;28;20031;-78
2022/05/31 02:21:40;;;;;;;15.02;6.45;;;;;;;-146.64;100.00;114928.06;5049929;28;20119;-79
2022/05/31 02:24:08;;;;;;;13.80;7.07;;;;;;;-146.64;100.00;115462.00;5052235;28;20439;-79
2022/05/31 02:26:34;;;;;;;10.30;6.68;;;;;;;-146.64;100.00;115729.00;5052259;28;20020;-77
2022/05/31 02:28:59;;;;;;;9.27;6.05;;;;;;;-146.64;100.00;115996.03;5051954;28;20033;-78
2022/05/31 02:31:26;;;;;;;11.13;6.30;;;;;;;-146.64;100.00;114928.06;5052279;28;20403;-80
2022/05/31 02:33:52;;;;;;;10.07;6.72;;;;;;;-146.64;100.00;115996.03;5068800;28;20029;-79
2022/05/31 02:36:17;;;;;;;11.88;6.82;;;;;;;-146.64;100.00;116263.06;5035226;28;20040;-77
2022/05/31 02:38:42;;;;;;;8.52;6.40;;;;;;;-146.64;100.00;116263.06;5063727;28;20063;-78
2022/05/31 02:41:09;;;;;;;11.68;7.22;;;;;;;-146.64;100.00;116263.06;5052282;28;20025;-78
2022/05/31 02:43:35;;;;;;;11.18;6.75;;;;;;;-146.64;100.00;114928.06;5051840;28;20493;-78
2022/05/31 02:46:03;;;;;;;13.77;7.32;;;;;;;-146.64;100.00;116263.06;5052421;28;20036;-78
2022/05/31 02:48:28;;;;;;;9.77;6.88;;;;;;;-146.64;100.00;116530.09;5042719;28;20051;-79
2022/05/31 02:50:54;;;;;;;8.55;7.05;;;;;;;-146.64;100.00;116530.09;5050127;28;20085;-80
2022/05/31 02:53:19;;;;;;;12.65;6.72;;;;;;;-146.64;100.00;117064.25;5042926;28;20380;-79
2022/05/31 02:55:44;;;;;;;10.13;7.40;;;;;;;-146.64;100.00;117064.25;5070482;28;20048;-79
2022/05/31 02:58:10;;;;;;;15.27;7.68;;;;;;;-146.64;100.00;117598.47;5051354;28;20484;-78
2022/05/31 03:00:35;;;;;;;10.93;7.75;;;;;;;-146.64;100.00;117331.34;5039426;28;20043;-78
2022/05/31 03:03:02;;;;;;;11.80;7.90;;;;;;;-146.64;100.00;117865.63;5073109;28;20037;-78
2022/05/31 03:05:27;;;;;;;;;;;;;;;-146.64;100.00;117865.63;5069421;28;20025;-78
2022/05/31 03:07:53;;;;;;;8.13;6.88;;;;;;;-146.64;100.00;117598.47;5062414;28;19938;-79
2022/05/31 03:10:19;;;;;;;10.93;7.20;;;;;;;-146.64;100.00;117865.63;5041727;28;20508;-78
2022/05/31 03:12:45;;;;;;;16.38;7.78;;;;;;;-146.64;100.00;118132.78;5046693;28;20038;-79
2022/05/31 03:15:14;;;;;;;11.10;7.07;;;;;;;-146.64;100.00;118132.78;5042309;28;20395;-79
2022/05/31 03:17:46;;;;;;;7.82;6.47;;;;;;;-146.64;100.00;117865.63;5069989;28;20025;-79
2022/05/31 03:20:18;;;;;;;9.18;6.88;;;;;;;-146.64;100.00;116797.16;5072706;28;20037;-78
2022/05/31 03:22:59;;;;;;;14.55;7.03;;;;;;;-146.64;100.00;117598.47;5055932;28;20047;-79
2022/05/31 03:25:28;;;;;;;9.75;6.88;;;;;;;-146.64;100.00;118132.78;5037899;28;20487;-78
2022/05/31 03:27:57;;;;;;;13.30;7.78;;;;;;;-146.64;100.00;118132.78;5046424;28;20388;-78
2022/05/31 03:30:23;;;;;;;9.98;7.40;;;;;;;-146.64;100.00;117865.63;5054020;28;20068;-79
2022/05/31 03:32:49;;;;;;;7.45;6.20;;;;;;;-146.64;100.00;117598.47;5055264;28;20056;-79
2022/05/31 03:35:14;;;;;;;13.65;7.13;;;;;;;-146.64;100.00;117331.34;5035937;28;20025;-79
2022/05/31 03:37:41;;;;;;;11.10;7.70;;;;;;;-146.64;100.00;116797.16;5054604;28;20029;-78
2022/05/31 03:40:08;;;;;;;11.95;7.15;;;;;;;-146.64;100.00;116263.06;5054321;28;20054;-79
2022/05/31 03:42:34;;;;;;;11.13;7.70;;;;;;;-146.64;100.00;116797.16;5064469;28;20032;-79
2022/05/31 03:44:59;;;;;;;11.30;7.68;;;;;;;-146.64;100.00;117331.34;5069641;28;20177;-79
2022/05/31 03:47:24;;;;;;;9.45;7.25;;;;;;;-146.64;100.00;117331.34;5054506;28;20070;-78
2022/05/31 03:49:50;;;;;;;11.15;7.60;;;;;;;-146.64;100.00;117331.34;5067378;28;20033;-79
2022/05/31 03:52:15;;;;;;;12.05;7.00;;;;;;;-146.64;100.00;117064.25;5063168;28;20388;-79
2022/05/31 03:54:44;;;;;;;9.98;7.40;;;;;;;-146.64;100.00;117331.34;5034681;28;20048;-79
2022/05/31 03:57:19;;;;;;;11.45;7.88;;;;;;;-146.64;100.00;118132.78;5034276;28;20040;-78
2022/05/31 03:59:44;;;;;;;10.52;7.03;;;;;;;-146.64;100.00;117598.47;5030874;28;20025;-79
2022/05/31 04:02:09;;;;;;;11.60;7.45;;;;;;;-146.64;100.00;117331.34;5041453;28;20034;-79
2022/05/31 04:04:36;;;;;;;13.68;6.88;;;;;;;-146.64;100.00;116797.16;5064206;28;20442;-79
2022/05/31 04:07:03;;;;;;;15.88;7.30;;;;;;;-146.64;100.00;117064.25;5054053;28;20287;-78
2022/05/31 04:09:29;;;;;;;12.73;7.00;;;;;;;-146.64;100.00;116263.06;5054037;28;20047;-79
2022/05/31 04:11:56;;;;;;;12.55;6.85;;;;;;;-146.64;100.00;115462.00;5069869;28;20281;-78
2022/05/31 04:14:22;;;;;;;10.95;7.45;;;;;;;-146.64;100.00;115996.03;5059244;28;20044;-79
2022/05/31 04:16:48;;;;;;;14.43;8.30;;;;;;;-146.64;100.00;116263.06;5068190;28;20460;-77
2022/05/31 04:19:14;;;;;;;14.48;7.15;;;;;;;-146.64;100.00;114661.13;5050966;28;20062;-78
2022/05/31 04:21:39;;;;;;;12.88;7.20;;;;;;;-146.64;100.00;113593.50;5052940;28;20040;-78
2022/05/31 04:24:08;;;;;;;10.88;7.13;;;;;;;-146.64;100.00;113059.81;5044525;28;20032;-78
2022/05/31 04:26:43;;;;;;;13.30;7.88;;;;;;;-146.64;100.00;112792.97;5054831;28;20028;-79
2022/05/31 04:29:08;;;;;;;14.57;7.00;;;;;;;-146.64;100.00;111725.84;5065609;28;20033;-79
2022/05/31 04:31:33;;;;;;;11.95;7.20;;;;;;;-146.64;100.00;110659.00;5071214;28;20111;-79
2022/05/31 04:33:59;;;;;;;17.13;7.80;;;;;;;-146.64;100.00;110125.69;5037010;28;20120;-78
2022/05/31 04:36:24;;;;;;;18.57;8.93;;;;;;;-146.64;100.00;109325.84;5054359;28;20051;-78
2022/05/31 04:38:50;;;;;;;13.88;8.13;;;;;;;-146.64;100.00;108526.16;5071059;28;20032;-79
2022/05/31 04:41:24;;;;;;;12.85;9.18;;;;;;;-146.64;100.00;107726.63;5052325;28;20071;-79
2022/05/31 04:43:55;;;;;;;11.73;7.70;;;;;;;-146.64;100.00;107460.16;5051557;28;20502;-79
2022/05/31 04:46:23;;;;;;;11.75;7.30;;;;;;;-146.64;100.00;106927.25;5044329;28;20024;-79
2022/05/31 04:48:49;;;;;;;13.23;7.78;;;;;;;-146.64;100.00;106394.44;5063563;28;20518;-79
2022/05/31 04:51:15;;;;;;;14.13;7.23;;;;;;;-146.64;100.00;106394.44;5051548;28;20025;-79
2022/05/31 04:53:41;;;;;;;13.23;7.37;;;;;;;-146.64;100.00;105595.31;5044670;28;20435;-79
2022/05/31 04:56:09;;;;;;;7.88;6.57;;;;;;;-146.64;100.00;105062.66;5049969;28;20074;-78
2022/05/31 04:58:35;;;;;;;11.27;7.00;;;;;;;-146.64;100.00;103731.34;5051413;28;20143;-79
2022/05/31 05:01:06;;;;;;;9.80;7.10;;;;;;;-146.64;100.00;102134.31;5049963;28;20107;-79
2022/05/31 05:03:32;;;;;;;13.38;7.03;;;;;;;-146.64;100.00;101602.13;5062451;28;20079;-79
2022/05/31 05:06:03;;;;;;;13.68;7.15;;;;;;;-146.64;100.00;99739.97;5032410;28;20043;-79
2022/05/31 05:08:29;;;;;;;10.98;6.50;;;;;;;-146.64;100.00;97347.03;5033611;28;20029;-79
2022/05/31 05:10:55;;;;;;;15.68;6.88;;;;;;;-146.64;100.00;89115.53;5058575;28;20029;-79
2022/05/31 05:13:20;;;;;;;9.35;6.70;;;;;;;-146.64;100.00;75081.16;5052622;28;20050;-79
2022/05/31 05:15:46;;;;;;;10.55;6.82;;;;;;;-146.64;100.00;65312.66;5064285;28;20329;-78
2022/05/31 05:18:11;;;;;;;11.23;6.45;;;;;;;-146.64;100.00;65840.06;5035442;28;20440;-79
2022/05/31 05:20:38;;;;;;;10.27;6.60;;;;;;;-146.64;100.00;61359.25;5071212;28;20056;-79
2022/05/31 05:23:04;;;;;;;11.55;5.72;;;;;;;-146.64;100.00;61095.81;5030659;28;20506;-79
2022/05/31 05:25:30;;;;;;;9.82;6.53;;;;;;;-146.64;100.00;49912.47;5059381;28;20072;-80
2022/05/31 05:27:55;;;;;;;11.60;6.10;;;;;;;-146.64;100.00;52938.44;5052581;28;20032;-79
2022/05/31 05:30:39;;;;;;;8.77;6.07;;;;;;;-146.64;100.00;52326.50;5064935;28;20530;-79
2022/05/31 05:33:04;;;;;;;7.72;6.25;;;;;;;-146.64;100.00;42179.50;5044298;28;20028;-77
2022/05/31 05:35:30;;;;;;;10.00;6.17;;;;;;;-146.64;100.00;40570.03;5051195;28;20402;-80
2022/05/31 05:37:55;;;;;;;8.63;6.03;;;;;;;-146.64;100.00;37737.66;5053038;28;20032;-80
2022/05/31 05:40:20;;;;;;;9.57;7.07;;;;;;;-146.64;100.00;37123.97;5035282;28;20458;-79
2022/05/31 05:42:46;;;;;;;13.57;6.60;;;;;;;-146.64;100.00;37584.22;5051651;28;20101;-80
2022/05/31 05:45:11;;;;;;;11.47;6.87;;;;;;;-146.64;100.00;36367.22;5049686;28;20103;-80
2022/05/31 05:47:36;;;;;;;8.67;6.40;;;;;;;-146.64;100.00;36162.72;5065386;28;20059;-79
2022/05/31 05:50:03;;;;;;;12.17;6.53;;;;;;;-146.64;100.00;35978.69;5035408;28;20024;-79
2022/05/31 05:52:29;;;;;;;15.63;6.40;;;;;;;-146.64;100.00;35794.66;5036044;28;20056;-80
2022/05/31 05:54:54;;;;;;;13.88;6.40;;;;;;;-146.64;100.00;35641.31;5051247;28;20047;-80
2022/05/31 05:57:19;;;;;;;8.27;6.03;;;;;;;-146.64;100.00;36545.16;5035099;28;20475;-80
2022/05/31 05:59:44;;;;;;;12.10;6.13;;;;;;;-146.64;100.00;37193.53;5067062;28;20040;-80
2022/05/31 06:02:28;;;;;;;7.97;6.10;;;;;;;-146.64;100.00;37007.38;5035558;28;20025;-79
2022/05/31 06:05:07;;;;;;;10.77;6.38;;;;;;;-146.64;100.00;37181.25;5038111;28;20158;-80
2022/05/31 06:07:37;;;;;;;12.63;6.53;;;;;;;-146.64;100.00;36710.81;5033575;28;20037;-80
2022/05/31 06:10:17;;;;;;;9.02;5.72;;;;;;;-146.64;100.00;36837.63;5029095;28;20036;-80
2022/05/31 06:12:45;;;;;;;8.95;6.75;;;;;;;-146.64;100.00;37406.25;5054273;28;20024;-80
2022/05/31 06:15:15;;;;;;;10.52;5.68;;;;;;;-146.64;100.00;36600.38;5050604;28;20025;-79
2022/05/31 06:17:42;;;;;;;11.98;5.90;;;;;;;-146.64;100.00;36502.22;5035336;28;20028;-80
2022/05/31 06:20:08;;;;;;;14.18;5.85;;;;;;;-146.64;100.00;37283.53;5035338;28;20043;-80
2022/05/31 06:22:35;;;;;;;8.40;5.68;;;;;;;-146.64;100.00;37713.13;5069534;28;20101;-79
2022/05/31 06:25:01;;;;;;;8.85;6.00;;;;;;;-146.64;100.00;37754.03;5050330;28;20044;-80
2022/05/31 06:27:27;;;;;;;11.80;6.80;;;;;;;-146.64;100.00;37741.75;5070005;28;20029;-80
2022/05/31 06:29:52;;;;;;;8.67;5.87;;;;;;;-146.64;100.00;37547.41;5062860;28;20111;-81
2022/05/31 06:32:18;;;;;;;16.30;6.00;;;;;;;-146.64;100.00;37177.16;5066227;28;20123;-79
2022/05/31 06:34:45;;;;;;;9.10;5.53;;;;;;;-146.64;100.00;37770.41;5050104;28;20037;-81
2022/05/31 06:37:13;;;;;;;9.60;6.05;;;;;;;-146.64;100.00;38077.28;5049611;28;20036;-80
2022/05/31 06:39:40;;;;;;;7.88;5.57;;;;;;;-146.64;100.00;38232.78;5067286;28;20056;-79
2022/05/31 06:42:05;;;;;;;9.30;5.90;;;;;;;-146.64;100.00;38044.53;5035432;28;20737;-80
2022/05/31 06:44:35;;;;;;;8.37;5.57;;;;;;;-146.64;100.00;38155.03;5065140;28;20040;-81
2022/05/31 06:47:01;;;;;;;11.98;6.32;;;;;;;-146.64;100.00;38022.03;5063075;28;20636;-80
2022/05/31 06:49:26;;;;;;;13.30;6.10;;;;;;;-146.64;100.00;38150.94;5044165;28;20031;-81
2022/05/31 06:57:20;;;;;;;11.60;5.57;;;;;;;-146.64;100.00;38081.38;5053740;28;20376;-81
2022/05/31 06:59:45;;;;;;;10.20;6.13;;;;;;;-146.64;100.00;37999.53;5045995;28;20024;-81
2022/05/31 07:02:10;;;;;;;12.07;5.53;;;;;;;-146.64;100.00;37868.59;5036449;28;20075;-81
2022/05/31 07:04:37;;;;;;;11.20;5.07;;;;;;;-146.64;100.00;37917.69;5064258;28;20471;-81
2022/05/31 07:07:03;;;;;;;7.75;5.40;;;;;;;-146.64;100.00;38099.78;5042659;28;20029;-81
2022/05/31 07:09:28;;;;;;;7.57;5.18;;;;;;;-146.64;100.00;38054.78;5030078;28;20025;-80
2022/05/31 07:11:57;;;;;;;9.10;5.17;;;;;;;-146.64;100.00;37778.59;5047451;28;20035;-81
2022/05/31 07:14:23;;;;;;;11.05;6.55;;;;;;;-146.64;100.00;38024.09;5048633;28;20485;-82
2022/05/31 07:16:49;;;;;;;;;;;;;;;-146.64;100.00;37936.09;5068178;28;20077;-81
2022/05/31 07:19:14;;;;;;;8.90;4.60;;;;;;;-146.64;100.00;37839.94;5043151;28;20486;-82
2022/05/31 07:21:39;;;;;;;8.97;4.90;;;;;;;-146.64;100.00;38040.44;5056445;28;20579;-80
2022/05/31 07:24:05;;;;;;;7.20;4.67;;;;;;;-146.64;93.71;38097.75;5051711;28;20039;-79
2022/05/31 07:26:30;;;;;;;7.07;4.67;;;;;;;-146.64;96.97;38095.69;5035281;28;20115;-80
2022/05/31 07:28:56;;;;;;;10.93;4.80;;;;;;;-146.64;99.86;38204.13;5044150;28;20032;-79
2022/05/31 07:31:21;;;;;;;11.17;4.77;;;;;;;-146.64;98.82;38093.66;5051596;28;20490;-79
2022/05/31 07:33:47;;;;;;;12.93;4.90;;;;;;;-146.64;100.00;38052.72;5051329;28;20031;-79
2022/05/31 07:36:13;;;;;;;9.02;4.43;;;;;;;-146.64;100.00;38020.00;5071212;28;20111;-79
2022/05/31 07:38:38;;;;;;;9.97;4.67;;;;;;;-146.64;91.34;38093.66;5068042;28;20119;-79
2022/05/31 07:41:04;;;;;;;7.70;5.60;;;;;;;-146.64;96.43;37954.53;5054916;28;20039;-79
2022/05/31 07:43:29;;;;;;;10.97;5.53;;;;;;;-146.64;86.57;37884.97;5068164;28;20025;-78
2022/05/31 07:46:05;;;;;;;9.30;5.80;;;;;;;-146.64;82.74;37782.66;5048337;28;20035;-79
2022/05/31 07:48:30;;;;;;;12.82;5.78;;;;;;;-146.64;81.10;37649.69;5067738;28;20028;-79
2022/05/31 07:50:56;;;;;;;7.33;5.10;;;;;;;-146.64;77.14;37786.75;5055563;28;20078;-79
2022/05/31 07:53:21;;;;;;;13.07;6.73;;;;;;;-146.64;80.65;37993.41;5049503;28;20489;-79
2022/05/31 07:56:06;;;;;;;8.60;5.43;;;;;;;-146.64;86.62;37860.41;5033359;28;20098;-79
2022/05/31 07:58:33;;;;;;;11.00;6.07;;;;;;;-146.64;87.40;37846.09;5067255;28;20058;-80
2022/05/31 08:01:07;;;;;;;10.30;6.10;;;;;;;-146.64;80.29;38017.94;5070397;28;20495;-79
2022/05/31 08:03:33;;;;;;;11.95;6.45;;;;;;;-146.64;86.42;37958.63;5057345;28;20028;-79
2022/05/31 08:06:03;;;;;;;9.88;6.93;;;;;;;-146.64;86.02;37825.63;5048705;28;20579;-80
2022/05/31 08:08:28;;;;;;;14.55;7.10;;;;;;;-146.64;78.54;37704.94;5031716;28;20033;-80
2022/05/31 08:10:54;;;;;;;11.27;6.47;;;;;;;-146.64;75.75;37631.28;5045079;28;20035;-79
2022/05/31 08:13:20;;;;;;;14.68;6.50;;;;;;;-146.64;67.92;37625.16;5048332;28;20044;-79
2022/05/31 08:15:45;;;;;;;11.13;6.83;;;;;;;-146.64;71.44;37815.41;5032710;28;20083;-80
2022/05/31 08:18:10;;;;;;;11.40;7.00;;;;;;;-146.64;71.72;37872.69;5069762;28;20028;-79
2022/05/31 08:20:38;;;;;;;14.33;7.37;;;;;;;-146.64;68.81;37846.09;5054102;28;20028;-80
2022/05/31 08:23:03;;;;;;;11.93;6.40;;;;;;;-146.64;68.81;37839.94;5053315;28;20033;-80
2022/05/31 08:25:28;;;;;;;19.07;6.97;;;;;;;-146.64;67.39;37827.69;5065908;28;20085;-77
2022/05/31 08:27:54;;;;;;;15.60;6.60;;;;;;;-146.64;71.88;37717.22;5064511;28;20032;-79
2022/05/31 08:30:19;;;;;;;12.17;6.87;;;;;;;-146.64;68.21;37717.22;5054228;28;20036;-78
2022/05/31 08:32:45;;;;;;;9.18;4.93;;;;;;;-146.64;62.71;37721.28;5042139;28;20426;-79
2022/05/31 08:35:10;;;;;;;15.73;6.73;;;;;;;-146.64;60.85;37864.50;5067284;28;20028;-80
2022/05/31 08:37:36;;;;;;;12.23;5.67;;;;;;;-146.64;59.61;37835.88;5078957;28;20066;-79
2022/05/31 08:40:01;;;;;;;14.17;5.60;;;;;;;-146.64;56.18;37891.09;5066922;28;20036;-80
2022/05/31 08:42:42;;;;;;;9.87;5.43;;;;;;;-146.64;58.71;37704.94;5073398;28;20025;-79
2022/05/31 08:45:13;;;;;;;9.18;4.72;;;;;;;-146.64;53.60;37721.28;5069673;28;20111;-80
2022/05/31 08:47:58;;;;;;;12.05;4.72;;;;;;;-146.64;56.65;37584.22;5068576;28;20036;-80
2022/05/31 08:53:40;;;;;;;12.60;4.50;;;;;;;-146.64;53.29;37790.84;5047294;28;20075;-80
2022/05/31 08:59:25;;;;;;;7.72;3.80;;;;;;;-146.64;52.78;37623.09;5063977;28;20127;-80
2022/05/31 09:01:53;;;;;;;14.70;5.90;;;;;;;-146.64;54.14;37668.09;5034358;28;20037;-79
2022/05/31 09:04:43;;;;;;;12.93;4.68;;;;;;;-146.64;54.43;37778.59;5052354;28;20032;-79
2022/05/31 09:07:17;;;;;;;12.32;5.22;;;;;;;-146.64;52.61;37807.22;5029247;28;20424;-80
2022/05/31 09:09:53;;;;;;;10.48;5.15;;;;;;;-146.64;55.15;37938.16;5047116;28;20077;-79
2022/05/31 09:12:26;;;;;;;10.70;4.93;;;;;;;-146.64;53.86;37766.31;5050410;28;20028;-79
2022/05/31 09:15:01;;;;;;;11.25;5.40;;;;;;;-146.64;51.26;37864.50;5030768;28;20515;-79
2022/05/31 09:17:35;;;;;;;7.45;4.03;;;;;;;-146.64;51.32;37768.34;5036370;28;20028;-80
2022/05/31 09:20:31;;;;;;;8.38;3.45;;;;;;;-146.64;49.14;37586.28;5047144;28;20035;-80
2022/05/31 09:22:56;;;;;;;5.70;2.85;;;;;;;-146.64;45.34;37647.66;5025811;28;20040;-80
2022/05/31 09:25:22;;;;;;;9.27;2.90;;;;;;;-146.64;47.38;37602.66;5044890;28;20075;-78
2022/05/31 09:27:49;;;;;;;8.77;3.47;;;;;;;-146.64;44.61;37639.47;5050717;28;20051;-79
2022/05/31 09:30:40;;;;;;;8.55;3.55;;;;;;;-146.64;46.47;37555.59;5034578;28;20051;-79
2022/05/31 09:33:12;;;;;;;7.90;2.95;;;;;;;-146.64;45.88;37549.47;5030753;28;20133;-80
2022/05/31 09:35:40;;;;;;;9.23;3.10;;;;;;;-146.64;45.10;37508.53;5053381;28;20031;-79
2022/05/31 09:38:24;;;;;;;6.15;3.25;;;;;;;-146.64;44.44;37557.63;5068447;28;20089;-80
2022/05/31 09:41:05;;;;;;;6.28;3.60;;;;;;;-146.64;44.23;37635.38;5070246;28;20024;-80
2022/05/31 09:43:50;;;;;;;11.40;4.32;;;;;;;-146.64;44.75;37500.34;5067862;28;20367;-79
2022/05/31 09:46:31;;;;;;;6.07;3.17;;;;;;;-146.64;44.20;37406.25;5040510;28;20040;-80
2022/05/31 09:48:57;;;;;;;6.40;2.10;;;;;;;-146.64;43.98;37373.53;5049830;28;20051;-80
2022/05/31 09:51:28;;;;;;;6.72;2.75;;;;;;;-146.64;43.77;37336.72;5053499;28;20111;-80
2022/05/31 09:59:25;;;;;;;6.70;4.45;;;;;;;-146.64;42.93;37443.09;5043725;28;20039;-80
2022/05/31 10:01:51;;;;;;;7.03;4.45;;;;;;;-146.64;45.19;37189.44;5037353;28;20021;-80
2022/05/31 10:04:28;;;;;;;8.57;4.40;;;;;;;-146.64;43.49;37230.34;5046865;28;20304;-79
2022/05/31 10:07:07;;;;;;;12.13;5.47;;;;;;;-146.64;44.05;37385.81;5065354;28;20115;-79
2022/05/31 10:09:40;;;;;;;9.68;5.63;;;;;;;-146.64;45.02;37111.72;5057626;28;20024;-79
2022/05/31 10:12:16;;;;;;;10.05;5.28;;;;;;;-146.64;45.13;37001.25;5066617;28;20036;-79
2022/05/31 10:14:48;;;;;;;9.27;4.28;;;;;;;-146.64;42.04;37070.78;5028816;28;20391;-79
2022/05/31 10:17:29;;;;;;;8.70;4.00;;;;;;;-146.64;43.18;37181.25;5061948;28;20104;-80
2022/05/31 10:20:05;;;;;;;9.32;5.10;;;;;;;-146.64;42.70;37267.16;5063728;28;20181;-79
2022/05/31 10:22:30;;;;;;;10.60;4.82;;;;;;;-146.64;43.71;37095.34;5062695;28;20024;-79
2022/05/31 10:24:56;;;;;;;10.57;4.63;;;;;;;-146.64;41.63;37038.06;5051956;28;20089;-79
2022/05/31 10:27:23;;;;;;;12.13;5.23;;;;;;;-146.64;42.49;37156.72;5051039;28;20146;-79
2022/05/31 10:29:52;;;;;;;9.05;4.95;;;;;;;-146.64;43.84;37365.34;5035406;28;20064;-79
2022/05/31 10:32:46;;;;;;;11.45;5.75;;;;;;;-146.64;45.43;37502.41;5051842;28;20069;-79
2022/05/31 10:35:14;;;;;;;7.40;5.22;;;;;;;-146.64;44.55;37087.16;5051028;28;20036;-79
2022/05/31 10:38:09;;;;;;;11.25;5.85;;;;;;;-146.64;43.39;37465.59;5055402;28;20119;-79
2022/05/31 10:40:49;;;;;;;11.55;5.35;;;;;;;-146.64;44.21;37218.06;5059148;28;20383;-78
2022/05/31 10:43:41;;;;;;;13.93;5.68;;;;;;;-146.64;43.59;37111.72;5069561;28;20032;-79
2022/05/31 10:46:19;;;;;;;10.18;4.97;;;;;;;-146.64;42.60;37297.84;5068382;28;20147;-80
2022/05/31 10:48:49;;;;;;;14.32;5.72;;;;;;;-146.64;43.20;37455.34;5033464;28;20052;-80
2022/05/31 10:51:32;;;;;;;12.63;5.05;;;;;;;-146.64;44.28;37598.56;5045533;28;20070;-83
2022/05/31 10:54:25;;;;;;;9.05;5.32;;;;;;;-146.64;45.68;37717.22;5068146;28;20126;-81
2022/05/31 10:57:09;;;;;;;9.15;4.97;;;;;;;-146.64;47.26;37549.47;5048141;28;20484;-81
2022/05/31 10:59:41;;;;;;;7.75;4.38;;;;;;;-146.64;46.92;37776.53;5062095;28;20025;-79
2022/05/31 11:02:36;;;;;;;8.85;4.70;;;;;;;-146.64;46.03;37766.31;5054884;28;20041;-81
2022/05/31 11:05:06;;;;;;;14.18;4.70;;;;;;;-146.64;42.53;37459.44;5018707;28;20098;-82
2022/05/31 11:14:07;;;;;;;8.88;5.05;;;;;;;-146.64;44.90;37723.34;5069118;28;20039;-81
2022/05/31 11:17:11;;;;;;;10.05;5.10;;;;;;;-146.64;46.08;37766.31;5045635;28;20138;-81
2022/05/31 11:19:47;;;;;;;10.23;5.72;;;;;;;-146.64;45.08;37799.03;5044483;28;21413;-81
2022/05/31 11:22:29;;;;;;;5.77;4.20;;;;;;;-146.64;44.62;37878.81;5066260;28;20028;-81
2022/05/31 11:25:25;;;;;;;5.55;3.72;;;;;;;-146.64;45.16;37852.22;5053491;28;20311;-81
2022/05/31 11:28:20;;;;;;;6.95;4.28;;;;;;;-146.64;45.87;37794.94;5037031;28;20115;-82
2022/05/31 11:31:06;;;;;;;6.18;3.45;;;;;;;-146.64;45.93;37766.31;5040787;28;20040;-81
2022/05/31 11:34:08;;;;;;;10.47;4.53;;;;;;;-146.64;45.87;37764.25;5054785;28;20036;-81
2022/05/31 11:36:44;;;;;;;17.77;5.13;;;;;;;-146.64;45.84;37700.84;5051215;28;20506;-82
2022/05/31 11:40:03;;;;;;;8.20;4.45;;;;;;;-146.64;46.91;37610.81;5073143;28;20083;-81
2022/05/31 11:42:41;;;;;;;11.48;4.80;;;;;;;-146.64;46.25;37635.38;5027306;28;20132;-82
2022/05/31 11:45:13;;;;;;;8.23;4.43;;;;;;;-146.64;46.04;37545.38;5060357;28;20036;-82